sensor_id;sensor_type;location;lat;lon;timestamp;P1;durP1;ratioP1;P2;durP2;ratioP2
23270;SDS011;11804;51.118;17.058;2022-10-16T00:01:20;13.63;;;11.73;;
23270;SDS011;11804;51.118;17.058;2022-10-16T00:03:49;15.87;;;11.40;;
23270;SDS011;11804;51.118;17.058;2022-10-16T00:06:19;14.57;;;11.33;;
23270;SDS011;11804;51.118;17.058;2022-10-16T00:08:48;14.13;;;11.33;;
23270;SDS011;11804;51.118;17.058;2022-10-16T00:11:18;13.13;;;10.87;;
23270;SDS011;11804;51.118;17.058;2022-10-16T00:13:48;12.57;;;10.87;;
23270;SDS011;11804;51.118;17.058;2022-10-16T00:16:18;17.93;;;10.80;;
23270;SDS011;11804;51.118;17.058;2022-10-16T00:18:46;14.73;;;10.33;;
23270;SDS011;11804;51.118;17.058;2022-10-16T00:21:18;14.00;;;10.10;;
23270;SDS011;11804;51.118;17.058;2022-10-16T00:23:51;13.03;;;9.50;;
23270;SDS011;11804;51.118;17.058;2022-10-16T00:26:20;10.97;;;9.43;;
23270;SDS011;11804;51.118;17.058;2022-10-16T00:28:48;10.10;;;9.00;;
23270;SDS011;11804;51.118;17.058;2022-10-16T00:31:17;10.73;;;9.10;;
23270;SDS011;11804;51.118;17.058;2022-10-16T00:33:46;15.10;;;9.23;;
23270;SDS011;11804;51.118;17.058;2022-10-16T00:36:15;13.83;;;9.20;;
23270;SDS011;11804;51.118;17.058;2022-10-16T00:38:45;11.77;;;9.57;;
23270;SDS011;11804;51.118;17.058;2022-10-16T00:41:14;11.07;;;9.33;;
23270;SDS011;11804;51.118;17.058;2022-10-16T00:43:44;10.63;;;9.10;;
23270;SDS011;11804;51.118;17.058;2022-10-16T00:46:25;10.97;;;8.60;;
23270;SDS011;11804;51.118;17.058;2022-10-16T00:49:00;12.07;;;10.37;;
23270;SDS011;11804;51.118;17.058;2022-10-16T00:51:33;9.80;;;8.43;;
23270;SDS011;11804;51.118;17.058;2022-10-16T00:54:04;11.03;;;8.83;;
23270;SDS011;11804;51.118;17.058;2022-10-16T00:56:33;10.93;;;8.13;;
23270;SDS011;11804;51.118;17.058;2022-10-16T00:59:02;10.10;;;7.80;;
23270;SDS011;11804;51.118;17.058;2022-10-16T01:01:32;12.13;;;7.70;;
23270;SDS011;11804;51.118;17.058;2022-10-16T01:03:59;8.47;;;7.27;;
23270;SDS011;11804;51.118;17.058;2022-10-16T01:12:14;7.70;;;6.90;;
23270;SDS011;11804;51.118;17.058;2022-10-16T01:14:48;9.93;;;7.30;;
23270;SDS011;11804;51.118;17.058;2022-10-16T01:17:23;7.77;;;6.87;;
23270;SDS011;11804;51.118;17.058;2022-10-16T01:20:10;10.03;;;6.97;;
23270;SDS011;11804;51.118;17.058;2022-10-16T01:22:31;14.10;;;7.27;;
23270;SDS011;11804;51.118;17.058;2022-10-16T01:25:16;9.50;;;6.63;;
23270;SDS011;11804;51.118;17.058;2022-10-16T01:27:43;8.37;;;6.63;;
23270;SDS011;11804;51.118;17.058;2022-10-16T01:30:21;7.77;;;6.90;;
23270;SDS011;11804;51.118;17.058;2022-10-16T01:32:46;7.80;;;6.40;;
23270;SDS011;11804;51.118;17.058;2022-10-16T01:35:17;10.10;;;6.67;;
23270;SDS011;11804;51.118;17.058;2022-10-16T01:37:48;9.97;;;6.70;;
23270;SDS011;11804;51.118;17.058;2022-10-16T01:40:20;10.40;;;6.63;;
23270;SDS011;11804;51.118;17.058;2022-10-16T01:42:55;8.57;;;6.97;;
23270;SDS011;11804;51.118;17.058;2022-10-16T01:45:24;13.53;;;7.20;;
23270;SDS011;11804;51.118;17.058;2022-10-16T01:47:52;8.73;;;7.23;;
23270;SDS011;11804;51.118;17.058;2022-10-16T01:50:21;10.73;;;7.20;;
23270;SDS011;11804;51.118;17.058;2022-10-16T01:52:51;8.87;;;7.30;;
23270;SDS011;11804;51.118;17.058;2022-10-16T01:55:26;10.23;;;6.97;;
23270;SDS011;11804;51.118;17.058;2022-10-16T01:57:50;8.57;;;7.10;;
23270;SDS011;11804;51.118;17.058;2022-10-16T02:00:20;8.83;;;7.07;;
23270;SDS011;11804;51.118;17.058;2022-10-16T02:02:49;8.83;;;7.40;;
23270;SDS011;11804;51.118;17.058;2022-10-16T02:05:34;9.17;;;7.37;;
23270;SDS011;11804;51.118;17.058;2022-10-16T02:08:09;11.90;;;7.70;;
23270;SDS011;11804;51.118;17.058;2022-10-16T02:10:37;10.77;;;8.10;;
23270;SDS011;11804;51.118;17.058;2022-10-16T02:15:36;9.17;;;7.77;;
23270;SDS011;11804;51.118;17.058;2022-10-16T02:18:04;13.70;;;8.17;;
23270;SDS011;11804;51.118;17.058;2022-10-16T02:20:36;11.07;;;7.83;;
23270;SDS011;11804;51.118;17.058;2022-10-16T02:23:23;9.80;;;8.23;;
23270;SDS011;11804;51.118;17.058;2022-10-16T02:25:50;10.67;;;8.37;;
23270;SDS011;11804;51.118;17.058;2022-10-16T02:28:28;12.87;;;8.30;;
23270;SDS011;11804;51.118;17.058;2022-10-16T02:31:07;10.40;;;8.23;;
23270;SDS011;11804;51.118;17.058;2022-10-16T02:33:37;10.70;;;8.90;;
23270;SDS011;11804;51.118;17.058;2022-10-16T02:36:08;13.47;;;8.80;;
23270;SDS011;11804;51.118;17.058;2022-10-16T02:38:36;10.90;;;8.77;;
23270;SDS011;11804;51.118;17.058;2022-10-16T02:41:06;13.37;;;8.90;;
23270;SDS011;11804;51.118;17.058;2022-10-16T02:43:34;12.67;;;9.83;;
23270;SDS011;11804;51.118;17.058;2022-10-16T02:46:02;13.70;;;10.10;;
23270;SDS011;11804;51.118;17.058;2022-10-16T02:48:29;11.17;;;9.90;;
23270;SDS011;11804;51.118;17.058;2022-10-16T02:50:57;17.93;;;10.90;;
23270;SDS011;11804;51.118;17.058;2022-10-16T02:53:24;12.77;;;9.80;;
23270;SDS011;11804;51.118;17.058;2022-10-16T02:55:52;12.13;;;9.57;;
23270;SDS011;11804;51.118;17.058;2022-10-16T02:58:20;11.70;;;9.80;;
23270;SDS011;11804;51.118;17.058;2022-10-16T03:00:47;10.37;;;9.17;;
23270;SDS011;11804;51.118;17.058;2022-10-16T03:03:15;12.43;;;9.90;;
23270;SDS011;11804;51.118;17.058;2022-10-16T03:05:43;15.23;;;9.43;;
23270;SDS011;11804;51.118;17.058;2022-10-16T03:08:14;13.13;;;9.13;;
23270;SDS011;11804;51.118;17.058;2022-10-16T03:10:42;14.27;;;9.80;;
23270;SDS011;11804;51.118;17.058;2022-10-16T03:13:09;13.77;;;9.67;;
23270;SDS011;11804;51.118;17.058;2022-10-16T03:15:37;13.87;;;9.57;;
23270;SDS011;11804;51.118;17.058;2022-10-16T03:18:04;10.97;;;8.97;;
23270;SDS011;11804;51.118;17.058;2022-10-16T03:20:32;10.37;;;8.40;;
23270;SDS011;11804;51.118;17.058;2022-10-16T03:22:59;13.03;;;9.13;;
23270;SDS011;11804;51.118;17.058;2022-10-16T03:25:28;11.43;;;9.70;;
23270;SDS011;11804;51.118;17.058;2022-10-16T03:27:56;12.30;;;9.77;;
23270;SDS011;11804;51.118;17.058;2022-10-16T03:30:24;11.27;;;9.43;;
23270;SDS011;11804;51.118;17.058;2022-10-16T03:32:51;12.07;;;9.60;;
23270;SDS011;11804;51.118;17.058;2022-10-16T03:35:20;11.97;;;9.70;;
23270;SDS011;11804;51.118;17.058;2022-10-16T03:37:48;10.47;;;9.03;;
23270;SDS011;11804;51.118;17.058;2022-10-16T03:40:17;14.27;;;9.70;;
23270;SDS011;11804;51.118;17.058;2022-10-16T03:42:45;12.63;;;9.20;;
23270;SDS011;11804;51.118;17.058;2022-10-16T03:45:12;11.73;;;9.60;;
23270;SDS011;11804;51.118;17.058;2022-10-16T03:47:40;11.33;;;10.10;;
23270;SDS011;11804;51.118;17.058;2022-10-16T03:50:08;12.53;;;9.33;;
23270;SDS011;11804;51.118;17.058;2022-10-16T03:52:36;13.20;;;9.57;;
23270;SDS011;11804;51.118;17.058;2022-10-16T03:55:03;11.77;;;9.37;;
23270;SDS011;11804;51.118;17.058;2022-10-16T03:57:31;11.57;;;9.77;;
23270;SDS011;11804;51.118;17.058;2022-10-16T03:59:59;14.43;;;10.00;;
23270;SDS011;11804;51.118;17.058;2022-10-16T04:02:26;13.43;;;11.63;;
23270;SDS011;11804;51.118;17.058;2022-10-16T04:04:54;16.10;;;12.20;;
23270;SDS011;11804;51.118;17.058;2022-10-16T04:07:21;17.63;;;12.87;;
23270;SDS011;11804;51.118;17.058;2022-10-16T04:09:49;16.23;;;11.83;;
23270;SDS011;11804;51.118;17.058;2022-10-16T04:12:17;15.33;;;11.63;;
23270;SDS011;11804;51.118;17.058;2022-10-16T04:14:45;13.27;;;11.00;;
23270;SDS011;11804;51.118;17.058;2022-10-16T04:17:12;13.93;;;11.17;;
23270;SDS011;11804;51.118;17.058;2022-10-16T04:19:40;13.80;;;11.00;;
23270;SDS011;11804;51.118;17.058;2022-10-16T04:22:07;12.33;;;10.00;;
23270;SDS011;11804;51.118;17.058;2022-10-16T04:24:35;14.83;;;10.43;;
23270;SDS011;11804;51.118;17.058;2022-10-16T04:27:04;13.80;;;11.10;;
23270;SDS011;11804;51.118;17.058;2022-10-16T04:29:32;14.47;;;9.97;;
23270;SDS011;11804;51.118;17.058;2022-10-16T04:31:59;11.97;;;10.20;;
23270;SDS011;11804;51.118;17.058;2022-10-16T04:34:27;12.10;;;10.03;;
23270;SDS011;11804;51.118;17.058;2022-10-16T04:36:54;12.20;;;9.63;;
23270;SDS011;11804;51.118;17.058;2022-10-16T04:39:21;11.47;;;9.70;;
23270;SDS011;11804;51.118;17.058;2022-10-16T04:41:49;12.80;;;9.73;;
23270;SDS011;11804;51.118;17.058;2022-10-16T04:44:16;13.53;;;10.07;;
23270;SDS011;11804;51.118;17.058;2022-10-16T04:46:44;13.63;;;10.07;;
23270;SDS011;11804;51.118;17.058;2022-10-16T04:49:12;13.40;;;9.97;;
23270;SDS011;11804;51.118;17.058;2022-10-16T04:51:39;14.37;;;9.67;;
23270;SDS011;11804;51.118;17.058;2022-10-16T04:54:08;13.60;;;9.60;;
23270;SDS011;11804;51.118;17.058;2022-10-16T04:56:36;12.37;;;9.27;;
23270;SDS011;11804;51.118;17.058;2022-10-16T04:59:05;10.50;;;9.40;;
23270;SDS011;11804;51.118;17.058;2022-10-16T05:01:33;10.10;;;8.73;;
23270;SDS011;11804;51.118;17.058;2022-10-16T05:04:00;11.10;;;9.00;;
23270;SDS011;11804;51.118;17.058;2022-10-16T05:06:28;10.13;;;8.47;;
23270;SDS011;11804;51.118;17.058;2022-10-16T05:08:55;9.93;;;8.57;;
23270;SDS011;11804;51.118;17.058;2022-10-16T05:11:23;11.57;;;9.00;;
23270;SDS011;11804;51.118;17.058;2022-10-16T05:13:50;13.27;;;9.20;;
23270;SDS011;11804;51.118;17.058;2022-10-16T05:16:18;10.17;;;8.70;;
23270;SDS011;11804;51.118;17.058;2022-10-16T05:18:45;11.13;;;8.87;;
23270;SDS011;11804;51.118;17.058;2022-10-16T05:21:13;11.03;;;8.90;;
23270;SDS011;11804;51.118;17.058;2022-10-16T05:23:42;10.67;;;9.17;;
23270;SDS011;11804;51.118;17.058;2022-10-16T05:26:10;13.60;;;9.00;;
23270;SDS011;11804;51.118;17.058;2022-10-16T05:28:38;10.23;;;9.13;;
23270;SDS011;11804;51.118;17.058;2022-10-16T05:31:06;11.77;;;8.60;;
23270;SDS011;11804;51.118;17.058;2022-10-16T05:33:36;9.83;;;8.83;;
23270;SDS011;11804;51.118;17.058;2022-10-16T05:36:09;11.10;;;8.70;;
23270;SDS011;11804;51.118;17.058;2022-10-16T05:38:35;12.80;;;9.40;;
23270;SDS011;11804;51.118;17.058;2022-10-16T05:41:04;10.47;;;8.97;;
23270;SDS011;11804;51.118;17.058;2022-10-16T05:43:33;12.40;;;9.87;;
23270;SDS011;11804;51.118;17.058;2022-10-16T05:46:02;11.03;;;8.83;;
23270;SDS011;11804;51.118;17.058;2022-10-16T05:48:31;12.47;;;10.23;;
23270;SDS011;11804;51.118;17.058;2022-10-16T05:51:03;10.90;;;9.43;;
23270;SDS011;11804;51.118;17.058;2022-10-16T05:53:30;11.00;;;9.20;;
23270;SDS011;11804;51.118;17.058;2022-10-16T05:56:00;13.03;;;8.97;;
23270;SDS011;11804;51.118;17.058;2022-10-16T05:58:34;10.83;;;9.13;;
23270;SDS011;11804;51.118;17.058;2022-10-16T06:01:03;14.40;;;9.00;;
23270;SDS011;11804;51.118;17.058;2022-10-16T06:03:29;11.57;;;8.97;;
23270;SDS011;11804;51.118;17.058;2022-10-16T06:05:57;9.80;;;8.77;;
23270;SDS011;11804;51.118;17.058;2022-10-16T06:08:25;11.87;;;9.53;;
23270;SDS011;11804;51.118;17.058;2022-10-16T06:11:02;9.77;;;8.37;;
23270;SDS011;11804;51.118;17.058;2022-10-16T06:13:31;10.73;;;8.50;;
23270;SDS011;11804;51.118;17.058;2022-10-16T06:15:59;8.83;;;7.93;;
23270;SDS011;11804;51.118;17.058;2022-10-16T06:18:28;9.87;;;7.97;;
23270;SDS011;11804;51.118;17.058;2022-10-16T06:20:56;11.20;;;8.47;;
23270;SDS011;11804;51.118;17.058;2022-10-16T06:23:25;10.70;;;8.35;;
23270;SDS011;11804;51.118;17.058;2022-10-16T06:25:54;9.57;;;8.00;;
23270;SDS011;11804;51.118;17.058;2022-10-16T06:28:23;9.87;;;8.80;;
23270;SDS011;11804;51.118;17.058;2022-10-16T06:30:58;10.10;;;8.57;;
23270;SDS011;11804;51.118;17.058;2022-10-16T06:33:21;9.68;;;7.90;;
23270;SDS011;11804;51.118;17.058;2022-10-16T06:35:48;8.50;;;7.60;;
23270;SDS011;11804;51.118;17.058;2022-10-16T06:38:16;10.13;;;8.33;;
23270;SDS011;11804;51.118;17.058;2022-10-16T06:40:43;8.87;;;7.73;;
23270;SDS011;11804;51.118;17.058;2022-10-16T06:43:11;10.23;;;7.77;;
23270;SDS011;11804;51.118;17.058;2022-10-16T06:45:39;8.73;;;7.53;;
23270;SDS011;11804;51.118;17.058;2022-10-16T06:48:06;9.67;;;7.27;;
23270;SDS011;11804;51.118;17.058;2022-10-16T06:50:34;7.95;;;7.05;;
23270;SDS011;11804;51.118;17.058;2022-10-16T06:53:01;8.63;;;7.20;;
23270;SDS011;11804;51.118;17.058;2022-10-16T06:55:29;8.35;;;7.40;;
23270;SDS011;11804;51.118;17.058;2022-10-16T06:57:56;11.50;;;7.40;;
23270;SDS011;11804;51.118;17.058;2022-10-16T07:00:24;8.33;;;7.17;;
23270;SDS011;11804;51.118;17.058;2022-10-16T07:02:53;9.10;;;7.40;;
23270;SDS011;11804;51.118;17.058;2022-10-16T07:05:20;8.43;;;7.00;;
23270;SDS011;11804;51.118;17.058;2022-10-16T07:07:48;8.98;;;7.90;;
23270;SDS011;11804;51.118;17.058;2022-10-16T07:10:15;8.10;;;6.53;;
23270;SDS011;11804;51.118;17.058;2022-10-16T07:12:43;9.18;;;7.37;;
23270;SDS011;11804;51.118;17.058;2022-10-16T07:15:10;8.38;;;6.92;;
23270;SDS011;11804;51.118;17.058;2022-10-16T07:17:38;8.20;;;6.92;;
23270;SDS011;11804;51.118;17.058;2022-10-16T07:20:06;10.60;;;7.40;;
23270;SDS011;11804;51.118;17.058;2022-10-16T07:22:34;9.50;;;6.65;;
23270;SDS011;11804;51.118;17.058;2022-10-16T07:25:02;7.60;;;6.40;;
23270;SDS011;11804;51.118;17.058;2022-10-16T07:27:30;7.50;;;6.53;;
23270;SDS011;11804;51.118;17.058;2022-10-16T07:29:57;8.50;;;6.83;;
23270;SDS011;11804;51.118;17.058;2022-10-16T07:32:25;8.40;;;6.47;;
23270;SDS011;11804;51.118;17.058;2022-10-16T07:34:52;7.55;;;6.28;;
23270;SDS011;11804;51.118;17.058;2022-10-16T07:37:21;6.28;;;5.65;;
23270;SDS011;11804;51.118;17.058;2022-10-16T07:39:49;5.57;;;5.07;;
23270;SDS011;11804;51.118;17.058;2022-10-16T07:42:17;6.58;;;5.25;;
23270;SDS011;11804;51.118;17.058;2022-10-16T07:44:46;6.75;;;5.08;;
23270;SDS011;11804;51.118;17.058;2022-10-16T07:47:13;5.53;;;4.97;;
23270;SDS011;11804;51.118;17.058;2022-10-16T07:49:41;5.40;;;4.30;;
23270;SDS011;11804;51.118;17.058;2022-10-16T07:52:08;5.28;;;4.37;;
23270;SDS011;11804;51.118;17.058;2022-10-16T07:54:36;5.15;;;4.65;;
23270;SDS011;11804;51.118;17.058;2022-10-16T07:57:03;6.67;;;4.70;;
23270;SDS011;11804;51.118;17.058;2022-10-16T07:59:31;5.97;;;4.70;;
23270;SDS011;11804;51.118;17.058;2022-10-16T08:01:58;6.80;;;4.78;;
23270;SDS011;11804;51.118;17.058;2022-10-16T08:04:25;5.42;;;4.55;;
23270;SDS011;11804;51.118;17.058;2022-10-16T08:06:53;8.90;;;4.47;;
23270;SDS011;11804;51.118;17.058;2022-10-16T08:09:21;4.83;;;4.33;;
23270;SDS011;11804;51.118;17.058;2022-10-16T08:11:48;5.87;;;4.08;;
23270;SDS011;11804;51.118;17.058;2022-10-16T08:14:17;7.60;;;4.47;;
23270;SDS011;11804;51.118;17.058;2022-10-16T08:16:45;5.58;;;4.15;;
23270;SDS011;11804;51.118;17.058;2022-10-16T08:19:12;5.50;;;4.10;;
23270;SDS011;11804;51.118;17.058;2022-10-16T08:21:41;5.22;;;4.03;;
23270;SDS011;11804;51.118;17.058;2022-10-16T08:24:08;4.87;;;4.28;;
23270;SDS011;11804;51.118;17.058;2022-10-16T08:26:36;5.35;;;3.87;;
23270;SDS011;11804;51.118;17.058;2022-10-16T08:29:03;4.87;;;3.95;;
23270;SDS011;11804;51.118;17.058;2022-10-16T08:31:31;5.00;;;3.95;;
23270;SDS011;11804;51.118;17.058;2022-10-16T08:33:58;6.50;;;4.30;;
23270;SDS011;11804;51.118;17.058;2022-10-16T08:36:26;6.08;;;4.45;;
23270;SDS011;11804;51.118;17.058;2022-10-16T08:38:54;6.00;;;4.55;;
23270;SDS011;11804;51.118;17.058;2022-10-16T08:41:42;5.45;;;4.50;;
23270;SDS011;11804;51.118;17.058;2022-10-16T08:44:26;5.30;;;4.33;;
23270;SDS011;11804;51.118;17.058;2022-10-16T08:49:58;5.33;;;4.10;;
23270;SDS011;11804;51.118;17.058;2022-10-16T08:52:30;4.37;;;3.90;;
23270;SDS011;11804;51.118;17.058;2022-10-16T08:55:01;5.62;;;3.60;;
23270;SDS011;11804;51.118;17.058;2022-10-16T08:57:30;4.55;;;4.15;;
23270;SDS011;11804;51.118;17.058;2022-10-16T09:00:05;4.60;;;4.20;;
23270;SDS011;11804;51.118;17.058;2022-10-16T09:02:31;4.22;;;3.75;;
23270;SDS011;11804;51.118;17.058;2022-10-16T09:10:19;4.10;;;3.70;;
23270;SDS011;11804;51.118;17.058;2022-10-16T09:12:56;4.80;;;3.92;;
23270;SDS011;11804;51.118;17.058;2022-10-16T09:15:52;10.05;;;3.83;;
23270;SDS011;11804;51.118;17.058;2022-10-16T09:18:21;4.08;;;3.47;;
23270;SDS011;11804;51.118;17.058;2022-10-16T09:23:30;4.80;;;3.65;;
23270;SDS011;11804;51.118;17.058;2022-10-16T09:26:00;3.80;;;3.50;;
23270;SDS011;11804;51.118;17.058;2022-10-16T09:28:29;3.95;;;3.55;;
23270;SDS011;11804;51.118;17.058;2022-10-16T09:30:56;3.90;;;3.50;;
23270;SDS011;11804;51.118;17.058;2022-10-16T09:33:25;4.80;;;3.65;;
23270;SDS011;11804;51.118;17.058;2022-10-16T09:35:57;7.97;;;4.60;;
23270;SDS011;11804;51.118;17.058;2022-10-16T09:38:29;5.95;;;3.95;;
23270;SDS011;11804;51.118;17.058;2022-10-16T09:41:02;4.37;;;3.98;;
23270;SDS011;11804;51.118;17.058;2022-10-16T09:43:48;4.20;;;3.40;;
23270;SDS011;11804;51.118;17.058;2022-10-16T09:46:30;4.80;;;4.00;;
23270;SDS011;11804;51.118;17.058;2022-10-16T09:49:04;5.47;;;4.15;;
23270;SDS011;11804;51.118;17.058;2022-10-16T09:51:35;5.05;;;4.53;;
23270;SDS011;11804;51.118;17.058;2022-10-16T09:56:37;10.23;;;3.50;;
23270;SDS011;11804;51.118;17.058;2022-10-16T09:59:10;6.25;;;3.02;;
23270;SDS011;11804;51.118;17.058;2022-10-16T10:01:48;6.37;;;3.10;;
23270;SDS011;11804;51.118;17.058;2022-10-16T10:04:22;2.50;;;2.30;;
23270;SDS011;11804;51.118;17.058;2022-10-16T10:06:54;2.72;;;2.20;;
23270;SDS011;11804;51.118;17.058;2022-10-16T10:09:23;2.52;;;2.30;;
23270;SDS011;11804;51.118;17.058;2022-10-16T10:12:02;3.52;;;2.52;;
23270;SDS011;11804;51.118;17.058;2022-10-16T10:14:34;3.90;;;2.20;;
23270;SDS011;11804;51.118;17.058;2022-10-16T10:19:37;3.00;;;2.35;;
23270;SDS011;11804;51.118;17.058;2022-10-16T10:24:56;14.90;;;13.15;;
23270;SDS011;11804;51.118;17.058;2022-10-16T10:30:22;4.95;;;2.35;;
23270;SDS011;11804;51.118;17.058;2022-10-16T10:38:31;8.83;;;2.92;;
23270;SDS011;11804;51.118;17.058;2022-10-16T10:44:30;3.50;;;1.98;;
23270;SDS011;11804;51.118;17.058;2022-10-16T11:03:33;5.37;;;2.30;;
23270;SDS011;11804;51.118;17.058;2022-10-16T11:06:20;4.25;;;2.20;;
23270;SDS011;11804;51.118;17.058;2022-10-16T11:08:51;4.58;;;2.70;;
23270;SDS011;11804;51.118;17.058;2022-10-16T11:11:31;3.45;;;1.98;;
23270;SDS011;11804;51.118;17.058;2022-10-16T11:27:51;2.90;;;2.50;;
23270;SDS011;11804;51.118;17.058;2022-10-16T11:30:38;2.67;;;2.22;;
23270;SDS011;11804;51.118;17.058;2022-10-16T11:33:25;4.37;;;2.52;;
23270;SDS011;11804;51.118;17.058;2022-10-16T11:38:44;3.75;;;3.15;;
23270;SDS011;11804;51.118;17.058;2022-10-16T11:47:01;3.75;;;2.20;;
23270;SDS011;11804;51.118;17.058;2022-10-16T11:49:26;3.50;;;2.30;;
23270;SDS011;11804;51.118;17.058;2022-10-16T11:54:39;3.65;;;2.33;;
23270;SDS011;11804;51.118;17.058;2022-10-16T12:02:49;4.30;;;3.35;;
23270;SDS011;11804;51.118;17.058;2022-10-16T12:05:26;6.22;;;3.55;;
23270;SDS011;11804;51.118;17.058;2022-10-16T12:08:12;8.93;;;4.00;;
23270;SDS011;11804;51.118;17.058;2022-10-16T12:10:42;5.05;;;3.45;;
23270;SDS011;11804;51.118;17.058;2022-10-16T12:13:30;3.70;;;3.33;;
23270;SDS011;11804;51.118;17.058;2022-10-16T12:18:42;7.83;;;4.05;;
23270;SDS011;11804;51.118;17.058;2022-10-16T12:21:12;4.80;;;3.55;;
23270;SDS011;11804;51.118;17.058;2022-10-16T12:23:51;4.65;;;3.42;;
23270;SDS011;11804;51.118;17.058;2022-10-16T12:26:25;8.28;;;3.92;;
23270;SDS011;11804;51.118;17.058;2022-10-16T12:28:54;3.42;;;3.12;;
23270;SDS011;11804;51.118;17.058;2022-10-16T12:31:24;5.10;;;3.10;;
23270;SDS011;11804;51.118;17.058;2022-10-16T12:33:58;4.67;;;3.42;;
23270;SDS011;11804;51.118;17.058;2022-10-16T12:36:29;7.05;;;3.95;;
23270;SDS011;11804;51.118;17.058;2022-10-16T12:39:01;5.08;;;3.60;;
23270;SDS011;11804;51.118;17.058;2022-10-16T12:41:35;4.83;;;3.60;;
23270;SDS011;11804;51.118;17.058;2022-10-16T12:44:05;6.00;;;4.05;;
23270;SDS011;11804;51.118;17.058;2022-10-16T12:46:38;10.85;;;4.15;;
23270;SDS011;11804;51.118;17.058;2022-10-16T12:51:44;5.30;;;4.67;;
23270;SDS011;11804;51.118;17.058;2022-10-16T12:54:13;5.42;;;4.55;;
23270;SDS011;11804;51.118;17.058;2022-10-16T12:56:47;5.90;;;5.00;;
23270;SDS011;11804;51.118;17.058;2022-10-16T13:08:23;7.45;;;5.70;;
23270;SDS011;11804;51.118;17.058;2022-10-16T13:13:49;7.25;;;5.87;;
23270;SDS011;11804;51.118;17.058;2022-10-16T13:16:32;8.95;;;5.90;;
23270;SDS011;11804;51.118;17.058;2022-10-16T13:24:36;10.68;;;6.95;;
23270;SDS011;11804;51.118;17.058;2022-10-16T13:27:10;7.80;;;6.53;;
23270;SDS011;11804;51.118;17.058;2022-10-16T13:29:48;11.08;;;5.67;;
23270;SDS011;11804;51.118;17.058;2022-10-16T13:32:17;11.45;;;6.65;;
23270;SDS011;11804;51.118;17.058;2022-10-16T13:34:48;7.28;;;5.80;;
23270;SDS011;11804;51.118;17.058;2022-10-16T13:37:19;10.58;;;6.20;;
23270;SDS011;11804;51.118;17.058;2022-10-16T13:39:49;8.10;;;5.95;;
23270;SDS011;11804;51.118;17.058;2022-10-16T13:42:25;8.60;;;6.83;;
23270;SDS011;11804;51.118;17.058;2022-10-16T13:44:55;8.75;;;6.10;;
23270;SDS011;11804;51.118;17.058;2022-10-16T13:47:27;11.68;;;6.22;;
23270;SDS011;11804;51.118;17.058;2022-10-16T13:50:06;7.60;;;6.00;;
23270;SDS011;11804;51.118;17.058;2022-10-16T13:52:38;6.85;;;5.30;;
23270;SDS011;11804;51.118;17.058;2022-10-16T13:55:11;6.62;;;5.30;;
23270;SDS011;11804;51.118;17.058;2022-10-16T13:57:42;6.47;;;4.90;;
23270;SDS011;11804;51.118;17.058;2022-10-16T14:00:23;8.13;;;5.05;;
23270;SDS011;11804;51.118;17.058;2022-10-16T14:02:58;8.03;;;4.95;;
23270;SDS011;11804;51.118;17.058;2022-10-16T14:05:44;13.00;;;6.47;;
23270;SDS011;11804;51.118;17.058;2022-10-16T14:08:13;12.07;;;6.25;;
23270;SDS011;11804;51.118;17.058;2022-10-16T14:10:40;9.38;;;4.10;;
23270;SDS011;11804;51.118;17.058;2022-10-16T14:13:12;4.85;;;4.35;;
23270;SDS011;11804;51.118;17.058;2022-10-16T14:15:45;7.50;;;4.10;;
23270;SDS011;11804;51.118;17.058;2022-10-16T14:18:19;4.95;;;4.10;;
23270;SDS011;11804;51.118;17.058;2022-10-16T14:20:49;4.47;;;4.08;;
23270;SDS011;11804;51.118;17.058;2022-10-16T14:23:22;5.85;;;4.12;;
23270;SDS011;11804;51.118;17.058;2022-10-16T14:25:52;5.60;;;4.03;;
23270;SDS011;11804;51.118;17.058;2022-10-16T14:28:21;7.60;;;4.20;;
23270;SDS011;11804;51.118;17.058;2022-10-16T14:30:58;7.22;;;4.17;;
23270;SDS011;11804;51.118;17.058;2022-10-16T14:36:11;6.35;;;4.10;;
23270;SDS011;11804;51.118;17.058;2022-10-16T14:38:40;6.20;;;4.20;;
23270;SDS011;11804;51.118;17.058;2022-10-16T14:41:11;4.58;;;4.17;;
23270;SDS011;11804;51.118;17.058;2022-10-16T14:43:42;7.35;;;4.20;;
23270;SDS011;11804;51.118;17.058;2022-10-16T14:46:13;7.47;;;4.80;;
23270;SDS011;11804;51.118;17.058;2022-10-16T14:48:44;8.98;;;4.65;;
23270;SDS011;11804;51.118;17.058;2022-10-16T14:51:14;8.08;;;4.33;;
23270;SDS011;11804;51.118;17.058;2022-10-16T14:53:43;4.67;;;4.25;;
23270;SDS011;11804;51.118;17.058;2022-10-16T14:56:21;4.80;;;3.83;;
23270;SDS011;11804;51.118;17.058;2022-10-16T14:58:50;5.67;;;3.95;;
23270;SDS011;11804;51.118;17.058;2022-10-16T15:01:19;19.57;;;16.93;;
23270;SDS011;11804;51.118;17.058;2022-10-16T15:03:46;25.85;;;19.42;;
23270;SDS011;11804;51.118;17.058;2022-10-16T15:06:15;50.28;;;40.35;;
23270;SDS011;11804;51.118;17.058;2022-10-16T15:08:43;10.05;;;9.00;;
23270;SDS011;11804;51.118;17.058;2022-10-16T15:11:12;5.12;;;4.62;;
23270;SDS011;11804;51.118;17.058;2022-10-16T15:13:41;6.72;;;4.62;;
23270;SDS011;11804;51.118;17.058;2022-10-16T15:16:12;3.92;;;3.52;;
23270;SDS011;11804;51.118;17.058;2022-10-16T15:18:42;6.42;;;4.60;;
23270;SDS011;11804;51.118;17.058;2022-10-16T15:21:26;5.92;;;4.58;;
23270;SDS011;11804;51.118;17.058;2022-10-16T15:23:56;5.58;;;4.30;;
23270;SDS011;11804;51.118;17.058;2022-10-16T15:26:26;5.28;;;4.42;;
23270;SDS011;11804;51.118;17.058;2022-10-16T15:28:54;5.85;;;4.80;;
23270;SDS011;11804;51.118;17.058;2022-10-16T15:31:23;7.10;;;5.22;;
23270;SDS011;11804;51.118;17.058;2022-10-16T15:33:52;6.17;;;4.90;;
23270;SDS011;11804;51.118;17.058;2022-10-16T15:36:25;8.03;;;5.05;;
23270;SDS011;11804;51.118;17.058;2022-10-16T15:38:53;13.60;;;5.15;;
23270;SDS011;11804;51.118;17.058;2022-10-16T15:41:22;5.83;;;4.97;;
23270;SDS011;11804;51.118;17.058;2022-10-16T15:43:49;7.58;;;5.70;;
23270;SDS011;11804;51.118;17.058;2022-10-16T15:46:18;6.55;;;5.47;;
23270;SDS011;11804;51.118;17.058;2022-10-16T15:48:48;7.83;;;6.17;;
23270;SDS011;11804;51.118;17.058;2022-10-16T15:51:17;9.80;;;8.80;;
23270;SDS011;11804;51.118;17.058;2022-10-16T15:53:45;10.75;;;9.38;;
23270;SDS011;11804;51.118;17.058;2022-10-16T15:56:13;9.75;;;7.25;;
23270;SDS011;11804;51.118;17.058;2022-10-16T15:58:41;8.90;;;6.17;;
23270;SDS011;11804;51.118;17.058;2022-10-16T16:01:10;6.55;;;5.85;;
23270;SDS011;11804;51.118;17.058;2022-10-16T16:03:38;19.00;;;8.03;;
23270;SDS011;11804;51.118;17.058;2022-10-16T16:06:10;10.68;;;7.58;;
23270;SDS011;11804;51.118;17.058;2022-10-16T16:08:40;15.00;;;8.20;;
23270;SDS011;11804;51.118;17.058;2022-10-16T16:11:09;8.93;;;7.45;;
23270;SDS011;11804;51.118;17.058;2022-10-16T16:13:38;9.80;;;7.22;;
23270;SDS011;11804;51.118;17.058;2022-10-16T16:16:07;9.48;;;7.47;;
23270;SDS011;11804;51.118;17.058;2022-10-16T16:18:37;11.90;;;7.80;;
23270;SDS011;11804;51.118;17.058;2022-10-16T16:21:05;11.90;;;8.90;;
23270;SDS011;11804;51.118;17.058;2022-10-16T16:23:33;10.30;;;9.20;;
23270;SDS011;11804;51.118;17.058;2022-10-16T16:28:34;14.13;;;10.70;;
23270;SDS011;11804;51.118;17.058;2022-10-16T16:31:02;15.20;;;10.90;;
23270;SDS011;11804;51.118;17.058;2022-10-16T16:33:30;15.28;;;10.70;;
23270;SDS011;11804;51.118;17.058;2022-10-16T16:35:58;15.75;;;12.37;;
23270;SDS011;11804;51.118;17.058;2022-10-16T16:38:27;17.17;;;11.05;;